sensor_id;sensor_type;location;lat;lon;timestamp;P1;durP1;ratioP1;P2;durP2;ratioP2
577;SDS011;275;48.492;9.214;2023-03-21T00:02:16;7.47;;;4.97;;
577;SDS011;275;48.492;9.214;2023-03-21T00:04:43;6.90;;;5.30;;
577;SDS011;275;48.492;9.214;2023-03-21T00:07:10;9.10;;;5.93;;
577;SDS011;275;48.492;9.214;2023-03-21T00:09:37;7.18;;;6.10;;
577;SDS011;275;48.492;9.214;2023-03-21T00:12:04;7.57;;;6.88;;
577;SDS011;275;48.492;9.214;2023-03-21T00:14:33;6.13;;;5.53;;
577;SDS011;275;48.492;9.214;2023-03-21T00:17:03;6.70;;;6.00;;
577;SDS011;275;48.492;9.214;2023-03-21T00:19:30;7.25;;;5.90;;
577;SDS011;275;48.492;9.214;2023-03-21T00:21:57;6.95;;;5.60;;
577;SDS011;275;48.492;9.214;2023-03-21T00:24:26;5.60;;;4.97;;
577;SDS011;275;48.492;9.214;2023-03-21T00:26:52;5.88;;;5.03;;
577;SDS011;275;48.492;9.214;2023-03-21T00:29:20;5.53;;;4.20;;
577;SDS011;275;48.492;9.214;2023-03-21T00:31:47;4.80;;;4.35;;
577;SDS011;275;48.492;9.214;2023-03-21T00:34:15;4.72;;;3.83;;
577;SDS011;275;48.492;9.214;2023-03-21T00:36:42;4.40;;;3.63;;
577;SDS011;275;48.492;9.214;2023-03-21T00:39:08;4.85;;;3.95;;
577;SDS011;275;48.492;9.214;2023-03-21T00:41:35;4.93;;;3.85;;
577;SDS011;275;48.492;9.214;2023-03-21T00:44:02;4.72;;;3.80;;
577;SDS011;275;48.492;9.214;2023-03-21T00:46:29;4.80;;;3.38;;
577;SDS011;275;48.492;9.214;2023-03-21T00:48:56;4.45;;;3.40;;
577;SDS011;275;48.492;9.214;2023-03-21T00:51:24;5.90;;;3.50;;
577;SDS011;275;48.492;9.214;2023-03-21T00:53:52;4.80;;;3.45;;
577;SDS011;275;48.492;9.214;2023-03-21T00:56:19;5.63;;;4.05;;
577;SDS011;275;48.492;9.214;2023-03-21T00:58:46;6.43;;;3.83;;
577;SDS011;275;48.492;9.214;2023-03-21T01:01:13;4.43;;;3.30;;
577;SDS011;275;48.492;9.214;2023-03-21T01:03:40;5.50;;;3.75;;
577;SDS011;275;48.492;9.214;2023-03-21T01:06:12;3.78;;;3.00;;
577;SDS011;275;48.492;9.214;2023-03-21T01:08:44;3.65;;;2.80;;
577;SDS011;275;48.492;9.214;2023-03-21T01:11:13;4.53;;;3.40;;
577;SDS011;275;48.492;9.214;2023-03-21T01:13:42;4.65;;;3.20;;
577;SDS011;275;48.492;9.214;2023-03-21T01:16:09;7.95;;;3.80;;
577;SDS011;275;48.492;9.214;2023-03-21T01:18:37;4.95;;;3.15;;
577;SDS011;275;48.492;9.214;2023-03-21T01:21:06;5.22;;;3.80;;
577;SDS011;275;48.492;9.214;2023-03-21T01:23:34;3.95;;;3.35;;
577;SDS011;275;48.492;9.214;2023-03-21T01:26:03;3.88;;;3.10;;
577;SDS011;275;48.492;9.214;2023-03-21T01:28:30;5.82;;;2.92;;
577;SDS011;275;48.492;9.214;2023-03-21T01:30:59;5.00;;;3.40;;
577;SDS011;275;48.492;9.214;2023-03-21T01:33:27;3.92;;;3.03;;
577;SDS011;275;48.492;9.214;2023-03-21T01:35:55;4.72;;;2.60;;
577;SDS011;275;48.492;9.214;2023-03-21T01:38:22;4.20;;;2.72;;
577;SDS011;275;48.492;9.214;2023-03-21T01:40:49;4.13;;;3.33;;
577;SDS011;275;48.492;9.214;2023-03-21T01:43:23;3.63;;;3.22;;
577;SDS011;275;48.492;9.214;2023-03-21T01:46:05;3.85;;;3.00;;
577;SDS011;275;48.492;9.214;2023-03-21T01:48:45;3.60;;;2.60;;
577;SDS011;275;48.492;9.214;2023-03-21T01:51:15;4.60;;;3.38;;
577;SDS011;275;48.492;9.214;2023-03-21T01:53:44;3.92;;;2.90;;
577;SDS011;275;48.492;9.214;2023-03-21T01:56:13;5.65;;;4.00;;
577;SDS011;275;48.492;9.214;2023-03-21T01:58:46;4.70;;;3.58;;
577;SDS011;275;48.492;9.214;2023-03-21T02:01:14;6.82;;;4.00;;
577;SDS011;275;48.492;9.214;2023-03-21T02:03:43;5.43;;;4.88;;
577;SDS011;275;48.492;9.214;2023-03-21T02:06:16;4.88;;;3.78;;
577;SDS011;275;48.492;9.214;2023-03-21T02:08:50;5.82;;;4.07;;
577;SDS011;275;48.492;9.214;2023-03-21T02:11:18;5.32;;;3.50;;
577;SDS011;275;48.492;9.214;2023-03-21T02:13:47;5.55;;;3.40;;
577;SDS011;275;48.492;9.214;2023-03-21T02:16:16;3.88;;;2.92;;
577;SDS011;275;48.492;9.214;2023-03-21T02:18:51;5.68;;;3.50;;
577;SDS011;275;48.492;9.214;2023-03-21T02:27:34;4.47;;;3.00;;
577;SDS011;275;48.492;9.214;2023-03-21T02:33:15;5.03;;;3.90;;
577;SDS011;275;48.492;9.214;2023-03-21T02:36:10;4.57;;;4.05;;
577;SDS011;275;48.492;9.214;2023-03-21T02:38:44;7.00;;;6.32;;
577;SDS011;275;48.492;9.214;2023-03-21T02:41:18;7.00;;;6.30;;
577;SDS011;275;48.492;9.214;2023-03-21T02:43:51;6.68;;;5.97;;
577;SDS011;275;48.492;9.214;2023-03-21T02:46:21;7.10;;;6.40;;
577;SDS011;275;48.492;9.214;2023-03-21T02:48:55;7.00;;;6.30;;
577;SDS011;275;48.492;9.214;2023-03-21T02:51:26;7.88;;;6.95;;
577;SDS011;275;48.492;9.214;2023-03-21T02:53:59;8.05;;;7.20;;
577;SDS011;275;48.492;9.214;2023-03-21T02:56:29;7.75;;;7.03;;
577;SDS011;275;48.492;9.214;2023-03-21T02:58:57;7.95;;;7.15;;
577;SDS011;275;48.492;9.214;2023-03-21T03:01:25;9.50;;;8.10;;
577;SDS011;275;48.492;9.214;2023-03-21T03:03:53;8.85;;;7.53;;
577;SDS011;275;48.492;9.214;2023-03-21T03:06:21;9.27;;;8.38;;
577;SDS011;275;48.492;9.214;2023-03-21T03:08:56;8.18;;;7.38;;
577;SDS011;275;48.492;9.214;2023-03-21T03:11:38;8.43;;;7.38;;
577;SDS011;275;48.492;9.214;2023-03-21T03:14:12;7.10;;;6.40;;
577;SDS011;275;48.492;9.214;2023-03-21T03:16:52;9.00;;;7.22;;
577;SDS011;275;48.492;9.214;2023-03-21T03:19:33;7.97;;;7.28;;
577;SDS011;275;48.492;9.214;2023-03-21T03:22:08;9.40;;;6.25;;
577;SDS011;275;48.492;9.214;2023-03-21T03:24:41;7.15;;;6.15;;
577;SDS011;275;48.492;9.214;2023-03-21T03:27:12;5.97;;;5.18;;
577;SDS011;275;48.492;9.214;2023-03-21T03:29:43;6.55;;;4.93;;
577;SDS011;275;48.492;9.214;2023-03-21T03:32:14;5.53;;;5.03;;
577;SDS011;275;48.492;9.214;2023-03-21T03:34:45;6.88;;;4.93;;
577;SDS011;275;48.492;9.214;2023-03-21T03:37:16;5.82;;;5.25;;
577;SDS011;275;48.492;9.214;2023-03-21T03:39:52;5.72;;;5.13;;
577;SDS011;275;48.492;9.214;2023-03-21T03:42:23;5.75;;;4.50;;
577;SDS011;275;48.492;9.214;2023-03-21T03:44:53;5.70;;;5.20;;
577;SDS011;275;48.492;9.214;2023-03-21T03:47:23;5.80;;;5.25;;
577;SDS011;275;48.492;9.214;2023-03-21T03:49:54;6.40;;;5.78;;
577;SDS011;275;48.492;9.214;2023-03-21T03:52:26;6.13;;;5.53;;
577;SDS011;275;48.492;9.214;2023-03-21T03:54:59;6.60;;;5.90;;
577;SDS011;275;48.492;9.214;2023-03-21T03:57:26;7.63;;;5.65;;
577;SDS011;275;48.492;9.214;2023-03-21T03:59:54;6.53;;;5.93;;
577;SDS011;275;48.492;9.214;2023-03-21T04:02:21;8.65;;;6.00;;
577;SDS011;275;48.492;9.214;2023-03-21T04:04:48;6.60;;;5.90;;
577;SDS011;275;48.492;9.214;2023-03-21T04:07:17;6.30;;;5.05;;
577;SDS011;275;48.492;9.214;2023-03-21T04:09:44;6.88;;;5.82;;
577;SDS011;275;48.492;9.214;2023-03-21T04:12:12;6.25;;;5.50;;
577;SDS011;275;48.492;9.214;2023-03-21T04:14:39;6.43;;;5.82;;
577;SDS011;275;48.492;9.214;2023-03-21T04:17:06;7.18;;;6.47;;
577;SDS011;275;48.492;9.214;2023-03-21T04:19:33;6.30;;;5.60;;
577;SDS011;275;48.492;9.214;2023-03-21T04:22:00;6.70;;;6.10;;
577;SDS011;275;48.492;9.214;2023-03-21T04:24:26;5.68;;;5.13;;
577;SDS011;275;48.492;9.214;2023-03-21T04:26:57;6.18;;;5.30;;
577;SDS011;275;48.492;9.214;2023-03-21T04:29:25;7.93;;;5.93;;
577;SDS011;275;48.492;9.214;2023-03-21T04:31:53;6.28;;;5.50;;
577;SDS011;275;48.492;9.214;2023-03-21T04:34:20;7.03;;;6.30;;
577;SDS011;275;48.492;9.214;2023-03-21T04:36:52;8.95;;;5.60;;
577;SDS011;275;48.492;9.214;2023-03-21T04:39:19;6.43;;;5.47;;
577;SDS011;275;48.492;9.214;2023-03-21T04:41:46;6.10;;;5.28;;
577;SDS011;275;48.492;9.214;2023-03-21T04:44:14;6.03;;;5.50;;
577;SDS011;275;48.492;9.214;2023-03-21T04:46:42;4.90;;;4.22;;
577;SDS011;275;48.492;9.214;2023-03-21T04:49:09;7.05;;;5.05;;
577;SDS011;275;48.492;9.214;2023-03-21T04:51:37;5.70;;;4.97;;
577;SDS011;275;48.492;9.214;2023-03-21T04:54:04;7.25;;;4.13;;
577;SDS011;275;48.492;9.214;2023-03-21T04:56:31;7.88;;;3.90;;
577;SDS011;275;48.492;9.214;2023-03-21T04:59:00;6.18;;;4.20;;
577;SDS011;275;48.492;9.214;2023-03-21T05:01:30;5.25;;;4.28;;
577;SDS011;275;48.492;9.214;2023-03-21T05:04:00;4.30;;;3.90;;
577;SDS011;275;48.492;9.214;2023-03-21T05:06:28;5.32;;;4.82;;
577;SDS011;275;48.492;9.214;2023-03-21T05:08:56;6.45;;;5.68;;
577;SDS011;275;48.492;9.214;2023-03-21T05:11:25;7.40;;;6.75;;
577;SDS011;275;48.492;9.214;2023-03-21T05:13:52;6.40;;;5.80;;
577;SDS011;275;48.492;9.214;2023-03-21T05:16:19;8.00;;;7.30;;
577;SDS011;275;48.492;9.214;2023-03-21T05:18:49;8.50;;;7.20;;
577;SDS011;275;48.492;9.214;2023-03-21T05:21:19;10.48;;;6.95;;
577;SDS011;275;48.492;9.214;2023-03-21T05:23:46;8.35;;;7.55;;
577;SDS011;275;48.492;9.214;2023-03-21T05:26:18;7.75;;;7.00;;
577;SDS011;275;48.492;9.214;2023-03-21T05:28:46;7.80;;;7.05;;
577;SDS011;275;48.492;9.214;2023-03-21T05:31:13;8.32;;;7.50;;
577;SDS011;275;48.492;9.214;2023-03-21T05:33:40;7.60;;;6.80;;
577;SDS011;275;48.492;9.214;2023-03-21T05:36:08;6.90;;;6.25;;
577;SDS011;275;48.492;9.214;2023-03-21T05:38:37;8.18;;;7.38;;
577;SDS011;275;48.492;9.214;2023-03-21T05:41:06;8.88;;;6.03;;
577;SDS011;275;48.492;9.214;2023-03-21T05:43:33;7.68;;;7.00;;
577;SDS011;275;48.492;9.214;2023-03-21T05:46:00;6.90;;;6.20;;
577;SDS011;275;48.492;9.214;2023-03-21T05:48:27;8.02;;;7.30;;
577;SDS011;275;48.492;9.214;2023-03-21T05:50:53;8.02;;;7.10;;
577;SDS011;275;48.492;9.214;2023-03-21T05:53:20;7.07;;;5.85;;
577;SDS011;275;48.492;9.214;2023-03-21T05:55:49;8.20;;;7.50;;
577;SDS011;275;48.492;9.214;2023-03-21T05:58:15;10.35;;;7.28;;
577;SDS011;275;48.492;9.214;2023-03-21T06:00:42;8.93;;;7.30;;
577;SDS011;275;48.492;9.214;2023-03-21T06:03:09;8.65;;;7.82;;
577;SDS011;275;48.492;9.214;2023-03-21T06:05:36;8.07;;;7.38;;
577;SDS011;275;48.492;9.214;2023-03-21T06:08:03;10.10;;;8.82;;
577;SDS011;275;48.492;9.214;2023-03-21T06:10:30;10.60;;;9.40;;
577;SDS011;275;48.492;9.214;2023-03-21T06:12:58;15.57;;;8.30;;
577;SDS011;275;48.492;9.214;2023-03-21T06:15:25;9.60;;;8.70;;
577;SDS011;275;48.492;9.214;2023-03-21T06:17:52;9.32;;;7.85;;
577;SDS011;275;48.492;9.214;2023-03-21T06:20:19;7.65;;;6.95;;
577;SDS011;275;48.492;9.214;2023-03-21T06:22:45;6.82;;;6.22;;
577;SDS011;275;48.492;9.214;2023-03-21T06:25:12;10.52;;;6.78;;
577;SDS011;275;48.492;9.214;2023-03-21T06:27:39;7.53;;;6.68;;
577;SDS011;275;48.492;9.214;2023-03-21T06:30:08;7.82;;;6.15;;
577;SDS011;275;48.492;9.214;2023-03-21T06:32:35;7.40;;;6.70;;
577;SDS011;275;48.492;9.214;2023-03-21T06:35:02;7.10;;;5.68;;
577;SDS011;275;48.492;9.214;2023-03-21T06:37:30;7.13;;;6.53;;
577;SDS011;275;48.492;9.214;2023-03-21T06:39:57;6.90;;;6.30;;
577;SDS011;275;48.492;9.214;2023-03-21T06:42:24;6.50;;;5.90;;
577;SDS011;275;48.492;9.214;2023-03-21T06:44:51;9.55;;;8.38;;
577;SDS011;275;48.492;9.214;2023-03-21T06:47:19;8.82;;;7.93;;
577;SDS011;275;48.492;9.214;2023-03-21T06:49:48;8.55;;;7.75;;
577;SDS011;275;48.492;9.214;2023-03-21T06:52:15;7.75;;;6.97;;
577;SDS011;275;48.492;9.214;2023-03-21T06:54:42;6.80;;;6.20;;
577;SDS011;275;48.492;9.214;2023-03-21T06:57:09;7.78;;;7.05;;
577;SDS011;275;48.492;9.214;2023-03-21T06:59:37;8.27;;;7.55;;
577;SDS011;275;48.492;9.214;2023-03-21T07:02:05;6.60;;;5.78;;
577;SDS011;275;48.492;9.214;2023-03-21T07:04:36;8.75;;;6.25;;
577;SDS011;275;48.492;9.214;2023-03-21T07:07:02;6.47;;;5.50;;
577;SDS011;275;48.492;9.214;2023-03-21T07:09:29;8.68;;;6.80;;
577;SDS011;275;48.492;9.214;2023-03-21T07:11:56;7.80;;;6.35;;
577;SDS011;275;48.492;9.214;2023-03-21T07:14:23;6.97;;;6.18;;
577;SDS011;275;48.492;9.214;2023-03-21T07:16:50;7.82;;;6.70;;
577;SDS011;275;48.492;9.214;2023-03-21T07:19:16;7.50;;;6.80;;
577;SDS011;275;48.492;9.214;2023-03-21T07:21:45;8.00;;;7.05;;
577;SDS011;275;48.492;9.214;2023-03-21T07:24:11;7.10;;;6.35;;
577;SDS011;275;48.492;9.214;2023-03-21T07:26:38;7.22;;;6.53;;
577;SDS011;275;48.492;9.214;2023-03-21T07:29:05;6.82;;;6.13;;
577;SDS011;275;48.492;9.214;2023-03-21T07:31:32;6.90;;;6.22;;
577;SDS011;275;48.492;9.214;2023-03-21T07:33:59;9.88;;;6.10;;
577;SDS011;275;48.492;9.214;2023-03-21T07:36:26;6.43;;;5.72;;
577;SDS011;275;48.492;9.214;2023-03-21T07:38:54;7.80;;;5.93;;
577;SDS011;275;48.492;9.214;2023-03-21T07:41:21;6.55;;;5.85;;
577;SDS011;275;48.492;9.214;2023-03-21T07:43:48;6.60;;;5.82;;
577;SDS011;275;48.492;9.214;2023-03-21T07:46:15;7.07;;;5.53;;
577;SDS011;275;48.492;9.214;2023-03-21T07:48:45;8.23;;;4.95;;
577;SDS011;275;48.492;9.214;2023-03-21T07:51:15;6.22;;;4.90;;
577;SDS011;275;48.492;9.214;2023-03-21T07:53:42;6.18;;;5.40;;
577;SDS011;275;48.492;9.214;2023-03-21T07:56:26;6.97;;;5.95;;
577;SDS011;275;48.492;9.214;2023-03-21T07:58:53;7.55;;;6.70;;
577;SDS011;275;48.492;9.214;2023-03-21T08:01:20;7.55;;;6.85;;
577;SDS011;275;48.492;9.214;2023-03-21T08:03:47;7.00;;;6.03;;
577;SDS011;275;48.492;9.214;2023-03-21T08:06:15;7.63;;;6.43;;
577;SDS011;275;48.492;9.214;2023-03-21T08:08:42;7.60;;;6.07;;
577;SDS011;275;48.492;9.214;2023-03-21T08:11:09;6.65;;;5.95;;
577;SDS011;275;48.492;9.214;2023-03-21T08:13:38;7.38;;;6.22;;
577;SDS011;275;48.492;9.214;2023-03-21T08:16:05;6.30;;;5.70;;
577;SDS011;275;48.492;9.214;2023-03-21T08:18:32;8.30;;;5.80;;
577;SDS011;275;48.492;9.214;2023-03-21T08:20:59;7.60;;;5.80;;
577;SDS011;275;48.492;9.214;2023-03-21T08:23:26;6.43;;;5.50;;
577;SDS011;275;48.492;9.214;2023-03-21T08:25:54;6.60;;;5.83;;
577;SDS011;275;48.492;9.214;2023-03-21T08:28:21;8.90;;;5.23;;
577;SDS011;275;48.492;9.214;2023-03-21T08:30:55;7.83;;;5.50;;
577;SDS011;275;48.492;9.214;2023-03-21T08:33:23;6.40;;;4.60;;
577;SDS011;275;48.492;9.214;2023-03-21T08:35:50;8.70;;;4.60;;
577;SDS011;275;48.492;9.214;2023-03-21T08:38:17;5.70;;;4.13;;
577;SDS011;275;48.492;9.214;2023-03-21T08:40:44;10.03;;;4.63;;
577;SDS011;275;48.492;9.214;2023-03-21T08:43:11;6.13;;;4.10;;
577;SDS011;275;48.492;9.214;2023-03-21T08:45:38;6.43;;;5.00;;
577;SDS011;275;48.492;9.214;2023-03-21T08:48:06;6.00;;;4.70;;
577;SDS011;275;48.492;9.214;2023-03-21T08:50:33;5.63;;;4.33;;
577;SDS011;275;48.492;9.214;2023-03-21T08:53:00;6.60;;;4.47;;
577;SDS011;275;48.492;9.214;2023-03-21T08:55:27;8.57;;;4.10;;
577;SDS011;275;48.492;9.214;2023-03-21T08:57:54;4.97;;;3.47;;
577;SDS011;275;48.492;9.214;2023-03-21T09:00:22;8.23;;;4.00;;
577;SDS011;275;48.492;9.214;2023-03-21T09:02:49;5.60;;;4.30;;
577;SDS011;275;48.492;9.214;2023-03-21T09:05:20;5.40;;;3.60;;
577;SDS011;275;48.492;9.214;2023-03-21T09:07:49;5.60;;;3.13;;
577;SDS011;275;48.492;9.214;2023-03-21T09:10:17;5.47;;;3.17;;
577;SDS011;275;48.492;9.214;2023-03-21T09:12:46;4.40;;;3.50;;
577;SDS011;275;48.492;9.214;2023-03-21T09:15:13;6.30;;;4.70;;
577;SDS011;275;48.492;9.214;2023-03-21T09:17:40;5.37;;;3.20;;
577;SDS011;275;48.492;9.214;2023-03-21T09:20:08;5.77;;;3.37;;
577;SDS011;275;48.492;9.214;2023-03-21T09:22:44;5.23;;;3.40;;
577;SDS011;275;48.492;9.214;2023-03-21T09:25:11;5.40;;;3.63;;
577;SDS011;275;48.492;9.214;2023-03-21T09:27:38;4.80;;;3.50;;
577;SDS011;275;48.492;9.214;2023-03-21T09:30:06;4.83;;;3.07;;
577;SDS011;275;48.492;9.214;2023-03-21T09:32:35;4.30;;;2.40;;
577;SDS011;275;48.492;9.214;2023-03-21T09:35:02;4.20;;;2.50;;
577;SDS011;275;48.492;9.214;2023-03-21T09:37:32;4.47;;;2.73;;
577;SDS011;275;48.492;9.214;2023-03-21T09:40:08;7.00;;;2.70;;
577;SDS011;275;48.492;9.214;2023-03-21T09:42:43;4.13;;;2.40;;
577;SDS011;275;48.492;9.214;2023-03-21T09:45:22;5.00;;;2.70;;
577;SDS011;275;48.492;9.214;2023-03-21T09:47:56;4.07;;;2.47;;
577;SDS011;275;48.492;9.214;2023-03-21T09:50:25;7.80;;;3.10;;
577;SDS011;275;48.492;9.214;2023-03-21T09:52:56;4.93;;;3.13;;
577;SDS011;275;48.492;9.214;2023-03-21T09:55:27;4.53;;;2.73;;
577;SDS011;275;48.492;9.214;2023-03-21T09:57:58;5.00;;;3.30;;
577;SDS011;275;48.492;9.214;2023-03-21T10:00:33;7.53;;;2.80;;
577;SDS011;275;48.492;9.214;2023-03-21T10:03:04;3.90;;;2.63;;
577;SDS011;275;48.492;9.214;2023-03-21T10:05:40;4.13;;;2.67;;
577;SDS011;275;48.492;9.214;2023-03-21T10:08:11;7.10;;;3.53;;
577;SDS011;275;48.492;9.214;2023-03-21T10:10:44;5.50;;;3.67;;
577;SDS011;275;48.492;9.214;2023-03-21T10:13:15;3.87;;;2.97;;
577;SDS011;275;48.492;9.214;2023-03-21T10:15:44;5.10;;;3.00;;
577;SDS011;275;48.492;9.214;2023-03-21T10:18:12;6.23;;;3.53;;
577;SDS011;275;48.492;9.214;2023-03-21T10:20:46;4.57;;;2.70;;
577;SDS011;275;48.492;9.214;2023-03-21T10:23:13;4.83;;;3.00;;
577;SDS011;275;48.492;9.214;2023-03-21T10:25:42;4.00;;;2.70;;
577;SDS011;275;48.492;9.214;2023-03-21T10:28:14;4.47;;;3.00;;
577;SDS011;275;48.492;9.214;2023-03-21T10:30:43;5.23;;;3.40;;
577;SDS011;275;48.492;9.214;2023-03-21T10:33:13;5.17;;;3.40;;
577;SDS011;275;48.492;9.214;2023-03-21T10:35:45;4.67;;;3.80;;
577;SDS011;275;48.492;9.214;2023-03-21T10:38:17;5.30;;;3.60;;
577;SDS011;275;48.492;9.214;2023-03-21T10:40:46;4.60;;;3.10;;
577;SDS011;275;48.492;9.214;2023-03-21T10:43:18;4.67;;;2.90;;
577;SDS011;275;48.492;9.214;2023-03-21T10:45:57;5.30;;;3.17;;
577;SDS011;275;48.492;9.214;2023-03-21T10:48:32;4.23;;;2.70;;
577;SDS011;275;48.492;9.214;2023-03-21T10:51:01;4.63;;;3.40;;
577;SDS011;275;48.492;9.214;2023-03-21T10:53:34;4.67;;;3.30;;
577;SDS011;275;48.492;9.214;2023-03-21T10:56:07;6.07;;;3.03;;
577;SDS011;275;48.492;9.214;2023-03-21T10:58:37;5.13;;;3.47;;
577;SDS011;275;48.492;9.214;2023-03-21T11:01:08;5.23;;;3.17;;
577;SDS011;275;48.492;9.214;2023-03-21T11:03:39;5.03;;;3.37;;
577;SDS011;275;48.492;9.214;2023-03-21T11:06:12;4.00;;;3.27;;
577;SDS011;275;48.492;9.214;2023-03-21T11:08:43;4.70;;;3.03;;
577;SDS011;275;48.492;9.214;2023-03-21T11:11:20;5.20;;;3.40;;
577;SDS011;275;48.492;9.214;2023-03-21T11:13:55;4.70;;;2.87;;
577;SDS011;275;48.492;9.214;2023-03-21T11:16:24;4.90;;;3.07;;
577;SDS011;275;48.492;9.214;2023-03-21T11:18:56;4.27;;;3.27;;
577;SDS011;275;48.492;9.214;2023-03-21T11:21:26;6.03;;;3.90;;
577;SDS011;275;48.492;9.214;2023-03-21T11:24:00;5.20;;;3.80;;
577;SDS011;275;48.492;9.214;2023-03-21T11:26:30;4.70;;;3.50;;
577;SDS011;275;48.492;9.214;2023-03-21T11:29:07;4.43;;;3.60;;
577;SDS011;275;48.492;9.214;2023-03-21T11:31:45;5.03;;;3.80;;
577;SDS011;275;48.492;9.214;2023-03-21T11:34:20;5.50;;;3.97;;
577;SDS011;275;48.492;9.214;2023-03-21T11:36:56;3.90;;;3.20;;
577;SDS011;275;48.492;9.214;2023-03-21T11:39:33;4.80;;;3.57;;
577;SDS011;275;48.492;9.214;2023-03-21T11:42:05;4.57;;;3.73;;
577;SDS011;275;48.492;9.214;2023-03-21T11:44:51;4.80;;;3.87;;
577;SDS011;275;48.492;9.214;2023-03-21T11:47:25;4.50;;;3.53;;
577;SDS011;275;48.492;9.214;2023-03-21T11:49:52;6.07;;;3.87;;
577;SDS011;275;48.492;9.214;2023-03-21T11:52:22;5.33;;;3.67;;
577;SDS011;275;48.492;9.214;2023-03-21T11:55:06;4.77;;;3.80;;
577;SDS011;275;48.492;9.214;2023-03-21T12:00:49;5.83;;;3.63;;
577;SDS011;275;48.492;9.214;2023-03-21T12:03:42;5.03;;;3.40;;
577;SDS011;275;48.492;9.214;2023-03-21T12:06:33;7.63;;;3.50;;
577;SDS011;275;48.492;9.214;2023-03-21T12:09:14;4.80;;;3.50;;
577;SDS011;275;48.492;9.214;2023-03-21T12:11:58;5.90;;;4.23;;
577;SDS011;275;48.492;9.214;2023-03-21T12:14:36;5.93;;;3.77;;
577;SDS011;275;48.492;9.214;2023-03-21T12:17:14;4.57;;;3.47;;
577;SDS011;275;48.492;9.214;2023-03-21T12:20:00;5.33;;;3.40;;
577;SDS011;275;48.492;9.214;2023-03-21T12:22:49;6.47;;;4.47;;
577;SDS011;275;48.492;9.214;2023-03-21T12:25:25;5.67;;;3.93;;
577;SDS011;275;48.492;9.214;2023-03-21T12:27:59;5.40;;;3.80;;
577;SDS011;275;48.492;9.214;2023-03-21T12:30:43;5.77;;;4.60;;
577;SDS011;275;48.492;9.214;2023-03-21T12:33:22;5.07;;;4.00;;
577;SDS011;275;48.492;9.214;2023-03-21T12:36:11;4.93;;;4.00;;
577;SDS011;275;48.492;9.214;2023-03-21T12:38:46;4.73;;;4.07;;
577;SDS011;275;48.492;9.214;2023-03-21T12:41:21;7.17;;;4.17;;
577;SDS011;275;48.492;9.214;2023-03-21T12:43:50;5.23;;;4.37;;
577;SDS011;275;48.492;9.214;2023-03-21T12:46:23;5.20;;;3.80;;
577;SDS011;275;48.492;9.214;2023-03-21T12:48:54;14.60;;;12.17;;
577;SDS011;275;48.492;9.214;2023-03-21T12:51:25;5.00;;;4.13;;
577;SDS011;275;48.492;9.214;2023-03-21T12:53:58;5.10;;;3.37;;
577;SDS011;275;48.492;9.214;2023-03-21T12:56:31;5.20;;;3.80;;
577;SDS011;275;48.492;9.214;2023-03-21T12:59:04;5.80;;;4.07;;
577;SDS011;275;48.492;9.214;2023-03-21T13:01:37;6.60;;;4.20;;
577;SDS011;275;48.492;9.214;2023-03-21T13:04:12;4.63;;;4.13;;
577;SDS011;275;48.492;9.214;2023-03-21T13:06:54;5.83;;;3.50;;
577;SDS011;275;48.492;9.214;2023-03-21T13:09:27;4.33;;;3.43;;
577;SDS011;275;48.492;9.214;2023-03-21T13:11:58;5.27;;;4.10;;
577;SDS011;275;48.492;9.214;2023-03-21T13:14:35;5.87;;;3.87;;
577;SDS011;275;48.492;9.214;2023-03-21T13:17:11;4.20;;;3.10;;
577;SDS011;275;48.492;9.214;2023-03-21T13:19:48;5.67;;;4.10;;
577;SDS011;275;48.492;9.214;2023-03-21T13:22:20;7.10;;;6.00;;
577;SDS011;275;48.492;9.214;2023-03-21T13:24:55;4.83;;;3.70;;
577;SDS011;275;48.492;9.214;2023-03-21T13:27:25;4.50;;;3.73;;
577;SDS011;275;48.492;9.214;2023-03-21T13:29:57;4.60;;;3.33;;
577;SDS011;275;48.492;9.214;2023-03-21T13:32:28;4.73;;;3.73;;
577;SDS011;275;48.492;9.214;2023-03-21T13:34:58;4.50;;;3.60;;
577;SDS011;275;48.492;9.214;2023-03-21T13:37:28;5.37;;;3.97;;
577;SDS011;275;48.492;9.214;2023-03-21T13:39:59;6.50;;;3.50;;
577;SDS011;275;48.492;9.214;2023-03-21T13:42:33;4.60;;;3.63;;
577;SDS011;275;48.492;9.214;2023-03-21T13:45:01;5.27;;;3.47;;
577;SDS011;275;48.492;9.214;2023-03-21T13:47:39;5.00;;;3.60;;
577;SDS011;275;48.492;9.214;2023-03-21T13:50:19;4.87;;;3.40;;
577;SDS011;275;48.492;9.214;2023-03-21T13:58:50;4.47;;;3.17;;
577;SDS011;275;48.492;9.214;2023-03-21T14:01:20;5.10;;;3.53;;
577;SDS011;275;48.492;9.214;2023-03-21T14:04:05;4.50;;;2.90;;
577;SDS011;275;48.492;9.214;2023-03-21T14:06:40;5.47;;;3.27;;
577;SDS011;275;48.492;9.214;2023-03-21T14:09:15;5.13;;;3.10;;
577;SDS011;275;48.492;9.214;2023-03-21T14:11:51;4.60;;;3.10;;
577;SDS011;275;48.492;9.214;2023-03-21T14:14:19;4.40;;;2.57;;
577;SDS011;275;48.492;9.214;2023-03-21T14:16:51;3.90;;;2.60;;
577;SDS011;275;48.492;9.214;2023-03-21T14:19:20;4.60;;;2.57;;
577;SDS011;275;48.492;9.214;2023-03-21T14:21:55;4.60;;;3.10;;
577;SDS011;275;48.492;9.214;2023-03-21T14:24:22;3.60;;;2.43;;
577;SDS011;275;48.492;9.214;2023-03-21T14:26:49;5.67;;;2.50;;
577;SDS011;275;48.492;9.214;2023-03-21T14:29:19;3.40;;;2.20;;
577;SDS011;275;48.492;9.214;2023-03-21T14:31:50;4.20;;;2.30;;
577;SDS011;275;48.492;9.214;2023-03-21T14:34:17;3.50;;;2.30;;
577;SDS011;275;48.492;9.214;2023-03-21T14:36:46;3.90;;;2.37;;
577;SDS011;275;48.492;9.214;2023-03-21T14:39:14;3.40;;;1.83;;
577;SDS011;275;48.492;9.214;2023-03-21T14:41:44;3.90;;;2.03;;
577;SDS011;275;48.492;9.214;2023-03-21T14:44:14;6.40;;;2.37;;
577;SDS011;275;48.492;9.214;2023-03-21T14:46:46;4.53;;;1.70;;
577;SDS011;275;48.492;9.214;2023-03-21T14:49:18;5.43;;;2.07;;
577;SDS011;275;48.492;9.214;2023-03-21T14:51:54;3.57;;;1.60;;
577;SDS011;275;48.492;9.214;2023-03-21T14:54:23;3.33;;;2.23;;
577;SDS011;275;48.492;9.214;2023-03-21T14:56:52;5.17;;;1.87;;
577;SDS011;275;48.492;9.214;2023-03-21T14:59:24;3.37;;;2.00;;
577;SDS011;275;48.492;9.214;2023-03-21T15:01:56;5.90;;;1.70;;
577;SDS011;275;48.492;9.214;2023-03-21T15:04:24;5.03;;;1.87;;
577;SDS011;275;48.492;9.214;2023-03-21T15:06:54;3.47;;;1.63;;
577;SDS011;275;48.492;9.214;2023-03-21T15:09:27;4.67;;;2.33;;
577;SDS011;275;48.492;9.214;2023-03-21T15:11:56;4.40;;;1.67;;
577;SDS011;275;48.492;9.214;2023-03-21T15:14:24;3.13;;;1.60;;
577;SDS011;275;48.492;9.214;2023-03-21T15:16:55;2.80;;;1.50;;
577;SDS011;275;48.492;9.214;2023-03-21T15:19:28;4.17;;;1.57;;
577;SDS011;275;48.492;9.214;2023-03-21T15:22:01;4.00;;;1.60;;
577;SDS011;275;48.492;9.214;2023-03-21T15:24:32;4.07;;;1.50;;
577;SDS011;275;48.492;9.214;2023-03-21T15:27:03;4.40;;;1.47;;
577;SDS011;275;48.492;9.214;2023-03-21T15:29:32;3.27;;;1.50;;
577;SDS011;275;48.492;9.214;2023-03-21T15:32:02;3.20;;;1.43;;
577;SDS011;275;48.492;9.214;2023-03-21T15:34:30;3.33;;;1.63;;
577;SDS011;275;48.492;9.214;2023-03-21T15:36:57;3.00;;;1.40;;
577;SDS011;275;48.492;9.214;2023-03-21T15:39:30;4.00;;;1.63;;
577;SDS011;275;48.492;9.214;2023-03-21T15:42:01;4.30;;;1.60;;
577;SDS011;275;48.492;9.214;2023-03-21T15:44:29;3.10;;;1.50;;
577;SDS011;275;48.492;9.214;2023-03-21T15:46:57;4.27;;;1.00;;
577;SDS011;275;48.492;9.214;2023-03-21T15:49:25;3.27;;;1.47;;
577;SDS011;275;48.492;9.214;2023-03-21T15:51:56;2.40;;;1.00;;
577;SDS011;275;48.492;9.214;2023-03-21T15:54:31;3.37;;;1.20;;
577;SDS011;275;48.492;9.214;2023-03-21T15:57:01;2.60;;;1.10;;
577;SDS011;275;48.492;9.214;2023-03-21T15:59:34;3.53;;;1.70;;
577;SDS011;275;48.492;9.214;2023-03-21T16:02:09;3.03;;;1.30;;
577;SDS011;275;48.492;9.214;2023-03-21T16:04:54;2.87;;;1.57;;
577;SDS011;275;48.492;9.214;2023-03-21T16:07:24;2.60;;;1.40;;
577;SDS011;275;48.492;9.214;2023-03-21T16:09:56;2.97;;;1.50;;
577;SDS011;275;48.492;9.214;2023-03-21T16:12:24;4.37;;;2.03;;
577;SDS011;275;48.492;9.214;2023-03-21T16:14:51;2.80;;;1.50;;
577;SDS011;275;48.492;9.214;2023-03-21T16:17:25;4.47;;;1.40;;
577;SDS011;275;48.492;9.214;2023-03-21T16:19:55;2.50;;;1.10;;
577;SDS011;275;48.492;9.214;2023-03-21T16:22:22;3.07;;;1.37;;
577;SDS011;275;48.492;9.214;2023-03-21T16:24:50;3.13;;;1.40;;